createdAt,value
2019-03-25T00:02:05.029Z,11.60
2019-03-25T00:04:37.497Z,11.59
2019-03-25T00:07:09.884Z,11.58
2019-03-25T00:09:42.367Z,11.54
2019-03-25T00:12:14.750Z,11.54
2019-03-25T00:14:47.136Z,11.45
2019-03-25T00:17:19.528Z,11.46
2019-03-25T00:19:51.913Z,11.49
2019-03-25T00:22:24.282Z,11.51
2019-03-25T00:24:56.737Z,11.51
2019-03-25T00:27:29.092Z,11.39
2019-03-25T00:30:01.502Z,11.37
2019-03-25T00:32:33.984Z,11.32
2019-03-25T00:35:06.443Z,11.28
2019-03-25T00:37:38.856Z,11.26
2019-03-25T00:40:11.295Z,11.26
2019-03-25T00:42:43.710Z,11.22
2019-03-25T00:45:16.128Z,11.23
2019-03-25T00:47:48.616Z,11.16
2019-03-25T00:50:20.996Z,11.09
2019-03-25T00:52:53.384Z,11.08
2019-03-25T00:55:25.792Z,11.07
2019-03-25T00:57:58.190Z,11.07
2019-03-25T01:00:30.653Z,11.07
2019-03-25T01:03:03.029Z,11.06
2019-03-25T01:05:35.408Z,11.01
2019-03-25T01:08:07.835Z,10.93
2019-03-25T01:10:40.209Z,10.88
2019-03-25T01:13:12.617Z,10.89
2019-03-25T01:15:45.017Z,10.87
2019-03-25T01:18:17.600Z,10.88
2019-03-25T01:20:49.998Z,10.89
2019-03-25T01:23:22.403Z,10.86
2019-03-25T01:25:54.863Z,10.79
2019-03-25T01:28:27.261Z,10.78
2019-03-25T01:30:59.649Z,10.75
2019-03-25T01:33:32.040Z,10.70
2019-03-25T01:36:04.423Z,10.68
2019-03-25T01:38:36.832Z,10.66
2019-03-25T01:41:09.226Z,10.60
2019-03-25T01:43:41.647Z,10.47
2019-03-25T01:46:14.064Z,10.45
2019-03-25T01:48:46.473Z,10.38
2019-03-25T01:51:18.859Z,10.34
2019-03-25T01:53:51.278Z,10.32
2019-03-25T01:56:23.707Z,10.31
2019-03-25T01:58:56.135Z,10.28
2019-03-25T02:01:28.518Z,10.30
2019-03-25T02:04:01.199Z,10.22
2019-03-25T02:06:33.591Z,10.23
2019-03-25T02:09:07.878Z,10.15
2019-03-25T02:11:40.258Z,10.12
2019-03-25T02:14:12.712Z,10.20
2019-03-25T02:16:46.064Z,10.13
2019-03-25T02:19:18.448Z,10.13
2019-03-25T02:21:50.806Z,10.10
2019-03-25T02:24:23.242Z,10.09
2019-03-25T02:26:55.726Z,10.07
2019-03-25T02:29:28.119Z,9.94
2019-03-25T02:32:00.518Z,9.90
2019-03-25T02:34:32.916Z,9.81
2019-03-25T02:37:05.376Z,9.81
2019-03-25T02:39:37.807Z,9.78
2019-03-25T02:42:10.177Z,9.77
2019-03-25T02:44:42.589Z,9.78
2019-03-25T02:47:14.992Z,9.74
2019-03-25T02:49:47.373Z,9.75
2019-03-25T02:52:19.766Z,9.72
2019-03-25T02:54:52.133Z,9.77
2019-03-25T02:57:24.616Z,9.75
2019-03-25T02:59:56.993Z,9.70
2019-03-25T03:02:29.361Z,9.72
2019-03-25T03:05:01.740Z,9.73
2019-03-25T03:07:34.141Z,9.68
2019-03-25T03:10:07.272Z,9.69
2019-03-25T03:12:39.692Z,9.70
2019-03-25T03:15:12.067Z,9.72
2019-03-25T03:17:44.459Z,9.67
2019-03-25T03:20:16.816Z,9.67
2019-03-25T03:22:49.204Z,9.71
2019-03-25T03:25:21.589Z,9.66
2019-03-25T03:27:53.951Z,9.65
2019-03-25T03:30:26.350Z,9.62
2019-03-25T03:32:58.730Z,9.59
2019-03-25T03:35:31.086Z,9.55
2019-03-25T03:38:03.448Z,9.58
2019-03-25T03:40:35.883Z,9.47
2019-03-25T03:43:08.417Z,9.41
2019-03-25T03:45:40.784Z,9.45
2019-03-25T03:48:13.173Z,9.40
2019-03-25T03:50:45.860Z,9.44
2019-03-25T03:53:18.462Z,9.39
2019-03-25T03:55:52.513Z,9.31
2019-03-25T03:58:27.355Z,9.24
2019-03-25T04:00:59.733Z,9.22
2019-03-25T04:03:32.421Z,9.15
2019-03-25T04:06:04.782Z,9.11
2019-03-25T04:08:37.172Z,9.07
2019-03-25T04:11:09.615Z,9.03
2019-03-25T04:13:45.304Z,9.07
2019-03-25T04:16:17.807Z,8.97
2019-03-25T04:18:50.242Z,8.92
2019-03-25T04:21:22.628Z,8.84
2019-03-25T04:23:55.020Z,8.83
2019-03-25T04:26:29.299Z,8.76
2019-03-25T04:29:01.489Z,8.69
2019-03-25T04:31:33.871Z,8.61
2019-03-25T04:34:06.231Z,8.61
2019-03-25T04:36:38.631Z,8.53
2019-03-25T04:39:10.983Z,8.49
2019-03-25T04:41:43.374Z,8.46
2019-03-25T04:44:15.919Z,8.58
2019-03-25T04:46:48.293Z,8.52
2019-03-25T04:49:20.648Z,8.50
2019-03-25T04:51:53.033Z,8.46
2019-03-25T04:54:25.376Z,8.49
2019-03-25T04:56:57.772Z,8.43
2019-03-25T04:59:30.131Z,8.39
2019-03-25T05:02:02.526Z,8.30
2019-03-25T05:04:34.941Z,8.23
2019-03-25T05:07:07.304Z,8.22
2019-03-25T05:09:39.680Z,8.12
2019-03-25T05:12:12.172Z,8.04
2019-03-25T05:14:44.535Z,8.03
2019-03-25T05:17:17.991Z,8.03
2019-03-25T05:19:50.361Z,7.97
2019-03-25T05:22:22.762Z,7.97
2019-03-25T05:24:55.158Z,7.97
2019-03-25T05:27:27.565Z,7.94
2019-03-25T05:29:59.931Z,7.90
2019-03-25T05:32:32.325Z,7.87
2019-03-25T05:35:04.738Z,7.85
2019-03-25T05:37:37.106Z,7.83
2019-03-25T05:40:09.901Z,7.87
2019-03-25T05:42:42.499Z,7.96
2019-03-25T05:45:14.896Z,8.10
2019-03-25T05:47:47.289Z,8.22
2019-03-25T05:50:19.677Z,8.37
2019-03-25T05:52:53.020Z,8.46
2019-03-25T05:55:25.386Z,8.57
2019-03-25T05:57:58.086Z,8.68
2019-03-25T06:00:33.507Z,8.85
2019-03-25T06:03:05.897Z,9.00
2019-03-25T06:05:38.267Z,9.14
2019-03-25T06:08:10.692Z,9.25
2019-03-25T06:10:43.097Z,9.37
2019-03-25T06:13:15.610Z,9.47
2019-03-25T06:15:47.986Z,9.54
2019-03-25T06:18:20.592Z,9.63
2019-03-25T06:20:52.957Z,9.75
2019-03-25T06:23:25.449Z,9.86
2019-03-25T06:25:57.813Z,9.92
2019-03-25T06:28:30.209Z,10.07
2019-03-25T06:31:02.617Z,10.22
2019-03-25T06:33:36.220Z,10.20
2019-03-25T06:36:08.616Z,10.35
2019-03-25T06:38:41.022Z,10.61
2019-03-25T06:41:13.435Z,10.84
2019-03-25T06:43:45.923Z,10.94
2019-03-25T06:46:18.353Z,10.95
2019-03-25T06:48:50.774Z,10.89
2019-03-25T06:51:23.177Z,11.02
2019-03-25T06:53:55.581Z,11.08
2019-03-25T06:56:27.986Z,11.22
2019-03-25T06:59:00.366Z,11.18
2019-03-25T07:01:32.734Z,11.41
2019-03-25T07:04:05.300Z,11.41
2019-03-25T07:06:37.871Z,11.22
2019-03-25T07:09:10.550Z,11.34
2019-03-25T07:11:43.456Z,11.63
2019-03-25T07:14:15.871Z,11.48
2019-03-25T07:16:48.274Z,11.18
2019-03-25T07:19:20.674Z,11.04
2019-03-25T07:21:53.067Z,11.00
2019-03-25T07:24:25.471Z,11.00
2019-03-25T07:26:57.876Z,11.07
2019-03-25T07:29:31.313Z,11.32
2019-03-25T07:32:03.716Z,11.46
2019-03-25T07:34:36.142Z,11.66
2019-03-25T07:37:08.561Z,11.60
2019-03-25T07:39:40.943Z,11.46
2019-03-25T07:42:13.386Z,11.49
2019-03-25T07:44:45.790Z,11.58
2019-03-25T07:47:18.195Z,11.47
2019-03-25T07:49:50.554Z,11.26
2019-03-25T07:52:22.960Z,11.35
2019-03-25T07:54:55.372Z,11.35
2019-03-25T07:57:27.880Z,11.68
2019-03-25T08:00:00.396Z,12.09
2019-03-25T08:02:32.857Z,12.06
2019-03-25T08:05:05.584Z,11.82
2019-03-25T08:07:38.012Z,11.66
2019-03-25T08:10:10.874Z,11.46
2019-03-25T08:12:43.307Z,11.31
2019-03-25T08:15:15.694Z,11.13
2019-03-25T08:17:48.153Z,11.02
2019-03-25T08:20:20.556Z,10.80
2019-03-25T08:22:52.923Z,10.72
2019-03-25T08:25:26.463Z,10.76
2019-03-25T08:28:00.172Z,10.65
2019-03-25T08:30:34.136Z,10.60
2019-03-25T08:33:06.515Z,10.60
2019-03-25T08:35:38.905Z,10.65
2019-03-25T08:38:11.288Z,10.73
2019-03-25T08:40:43.695Z,10.83
2019-03-25T08:43:17.761Z,10.90
2019-03-25T08:45:50.236Z,10.97
2019-03-25T08:48:22.617Z,10.86
2019-03-25T08:50:55.053Z,10.83
2019-03-25T08:53:27.409Z,10.78
2019-03-25T08:55:59.808Z,10.82
2019-03-25T08:58:32.218Z,10.80
2019-03-25T09:01:04.586Z,10.82
2019-03-25T09:03:38.089Z,10.96
2019-03-25T09:06:10.533Z,10.94
2019-03-25T09:08:42.919Z,10.95
2019-03-25T09:11:15.346Z,10.86
2019-03-25T09:13:47.776Z,10.82
2019-03-25T09:16:20.165Z,10.84
2019-03-25T09:18:53.634Z,10.93
2019-03-25T09:21:26.010Z,11.05
2019-03-25T09:23:59.019Z,11.11
2019-03-25T09:26:31.370Z,11.06
2019-03-25T09:29:03.783Z,11.01
2019-03-25T09:31:37.176Z,10.91
2019-03-25T09:34:09.651Z,10.80
2019-03-25T09:36:42.149Z,10.80
2019-03-25T09:39:14.564Z,10.66
2019-03-25T09:41:46.967Z,10.58
2019-03-25T09:44:19.374Z,10.49
2019-03-25T09:46:51.749Z,10.53
2019-03-25T09:49:24.176Z,10.60
2019-03-25T09:51:56.654Z,10.72
2019-03-25T09:54:29.041Z,10.78
2019-03-25T09:57:01.403Z,10.89
2019-03-25T09:59:33.795Z,10.82
2019-03-25T10:02:06.181Z,10.91
2019-03-25T10:04:39.649Z,10.89
2019-03-25T10:07:28.258Z,10.97
2019-03-25T10:10:00.331Z,10.98
2019-03-25T10:12:32.778Z,11.07
2019-03-25T10:15:06.592Z,11.25
2019-03-25T10:17:39.002Z,11.37
2019-03-25T10:20:11.752Z,11.10
2019-03-25T10:22:44.137Z,11.21
2019-03-25T10:25:16.896Z,11.29
2019-03-25T10:27:49.261Z,11.29
2019-03-25T10:30:21.700Z,11.22
2019-03-25T10:32:54.146Z,11.05
2019-03-25T10:35:26.536Z,10.99
2019-03-25T10:37:58.914Z,11.00
2019-03-25T10:40:31.283Z,11.06
2019-03-25T10:43:03.663Z,11.18
2019-03-25T10:45:36.078Z,11.18
2019-03-25T10:48:08.478Z,11.20
2019-03-25T10:50:40.854Z,11.09
2019-03-25T10:53:13.698Z,11.04
2019-03-25T10:55:46.095Z,10.87
2019-03-25T10:58:18.463Z,10.67
2019-03-25T11:00:50.883Z,10.37
2019-03-25T11:03:23.282Z,10.40
2019-03-25T11:05:55.763Z,10.49
2019-03-25T11:08:28.175Z,10.46
2019-03-25T11:11:00.599Z,10.39
2019-03-25T11:13:33.008Z,10.39
2019-03-25T11:16:05.389Z,10.39
2019-03-25T11:18:37.790Z,10.43
2019-03-25T11:21:10.170Z,10.60
2019-03-25T11:23:42.607Z,10.86
2019-03-25T11:26:14.976Z,11.17
2019-03-25T11:28:47.360Z,11.58
2019-03-25T11:31:19.811Z,12.07
2019-03-25T11:33:52.165Z,12.37
2019-03-25T11:36:24.586Z,12.68
2019-03-25T11:38:57.282Z,12.60
2019-03-25T11:41:29.886Z,12.23
2019-03-25T11:44:02.277Z,11.93
2019-03-25T11:46:34.712Z,11.81
2019-03-25T11:49:07.166Z,11.62
2019-03-25T11:51:39.591Z,11.53
2019-03-25T11:54:11.959Z,11.55
2019-03-25T11:56:44.457Z,11.68
2019-03-25T11:59:18.878Z,11.47
2019-03-25T12:01:50.937Z,11.08
2019-03-25T12:04:23.378Z,10.85
2019-03-25T12:06:55.786Z,10.77
2019-03-25T12:09:28.174Z,10.67
2019-03-25T12:12:00.676Z,10.66
2019-03-25T12:14:33.154Z,10.69
2019-03-25T12:17:05.636Z,10.93
2019-03-25T12:19:38.046Z,11.12
2019-03-25T12:22:10.415Z,11.49
2019-03-25T12:24:42.800Z,11.86
2019-03-25T12:27:15.425Z,12.03
2019-03-25T12:29:47.766Z,11.93
2019-03-25T12:32:20.164Z,11.75
2019-03-25T12:34:52.550Z,11.70
2019-03-25T12:37:24.973Z,11.68
2019-03-25T12:39:57.390Z,11.79
2019-03-25T12:42:29.844Z,12.00
2019-03-25T12:45:02.186Z,12.12
2019-03-25T12:47:35.626Z,12.33
2019-03-25T12:50:09.368Z,12.39
2019-03-25T12:52:42.019Z,12.44
2019-03-25T12:55:14.553Z,12.48
2019-03-25T12:57:46.969Z,12.47
2019-03-25T13:00:40.370Z,12.47
2019-03-25T13:03:13.038Z,12.46
2019-03-25T13:05:45.434Z,12.42
2019-03-25T13:08:17.849Z,11.78
2019-03-25T13:10:50.477Z,11.64
2019-03-25T13:13:22.974Z,11.52
2019-03-25T13:15:55.334Z,11.38
2019-03-25T13:18:27.921Z,11.44
2019-03-25T13:21:00.336Z,11.38
2019-03-25T13:23:32.928Z,11.34
2019-03-25T13:26:05.757Z,11.65
2019-03-25T13:28:38.116Z,11.97
2019-03-25T13:31:10.819Z,12.07
2019-03-25T13:33:43.309Z,12.11
2019-03-25T13:36:15.720Z,12.11
2019-03-25T13:38:48.157Z,12.01
2019-03-25T13:41:20.689Z,11.98
2019-03-25T13:43:53.075Z,11.88
2019-03-25T13:46:25.476Z,11.91
2019-03-25T13:48:57.819Z,11.87
2019-03-25T13:51:30.226Z,11.98
2019-03-25T13:54:02.709Z,11.93
2019-03-25T13:56:35.141Z,11.74
2019-03-25T13:59:07.527Z,11.63
2019-03-25T14:01:39.944Z,11.65
2019-03-25T14:04:12.371Z,11.65
2019-03-25T14:06:44.789Z,11.56
2019-03-25T14:09:17.219Z,11.48
2019-03-25T14:11:49.677Z,11.13
2019-03-25T14:14:22.120Z,10.76
2019-03-25T14:16:54.591Z,10.76
2019-03-25T14:19:29.179Z,10.73
2019-03-25T14:22:01.075Z,10.50
2019-03-25T14:24:33.475Z,10.24
2019-03-25T14:27:05.877Z,9.99
2019-03-25T14:29:38.262Z,9.87
2019-03-25T14:32:10.703Z,9.76
2019-03-25T14:34:44.961Z,9.59
2019-03-25T14:37:17.147Z,9.37
2019-03-25T14:39:49.485Z,9.22
2019-03-25T14:42:21.911Z,9.23
2019-03-25T14:44:54.399Z,9.25
2019-03-25T14:47:26.956Z,9.35
2019-03-25T14:49:59.329Z,9.48
2019-03-25T14:52:31.746Z,9.64
2019-03-25T14:55:04.124Z,9.79
2019-03-25T14:57:36.551Z,9.81
2019-03-25T15:00:10.460Z,9.81
2019-03-25T15:02:42.869Z,9.88
2019-03-25T15:05:15.850Z,9.91
2019-03-25T15:07:48.246Z,10.08
2019-03-25T15:10:20.766Z,10.24
2019-03-25T15:12:53.217Z,10.28
2019-03-25T15:15:25.715Z,10.28
2019-03-25T15:17:58.311Z,10.28
2019-03-25T15:20:30.703Z,10.14
2019-03-25T15:23:03.103Z,10.04
2019-03-25T15:25:35.567Z,10.12
2019-03-25T15:28:07.951Z,10.07
2019-03-25T15:30:40.453Z,10.19
2019-03-25T15:33:12.879Z,10.21
2019-03-25T15:35:45.352Z,10.22
2019-03-25T15:38:18.838Z,10.10
2019-03-25T15:40:51.266Z,9.98
2019-03-25T15:43:23.677Z,9.94
2019-03-25T15:45:56.066Z,9.94
2019-03-25T15:48:28.449Z,9.93
2019-03-25T15:51:00.904Z,9.84
2019-03-25T15:53:33.348Z,9.76
2019-03-25T15:56:05.893Z,9.31
2019-03-25T15:58:38.279Z,8.68
2019-03-25T16:01:10.676Z,8.47
2019-03-25T16:03:43.059Z,8.48
2019-03-25T16:06:15.546Z,8.43
2019-03-25T16:08:49.201Z,8.44
2019-03-25T16:11:21.715Z,8.49
2019-03-25T16:13:54.245Z,8.44
2019-03-25T16:16:26.727Z,8.46
2019-03-25T16:18:59.157Z,8.45
2019-03-25T16:21:31.539Z,8.51
2019-03-25T16:24:03.966Z,8.45
2019-03-25T16:26:36.353Z,8.45
2019-03-25T16:29:08.804Z,8.47
2019-03-25T16:31:41.232Z,8.26
2019-03-25T16:34:13.743Z,8.07
2019-03-25T16:36:46.133Z,7.79
2019-03-25T16:39:18.758Z,7.73
2019-03-25T16:41:51.116Z,7.53
2019-03-25T16:44:23.551Z,7.48
2019-03-25T16:46:55.918Z,7.49
2019-03-25T16:49:28.309Z,7.64
2019-03-25T16:52:00.703Z,7.76
2019-03-25T16:54:33.091Z,7.85
2019-03-25T16:57:05.573Z,7.87
2019-03-25T16:59:40.476Z,7.86
2019-03-25T17:02:12.089Z,7.86
2019-03-25T17:04:45.505Z,7.97
2019-03-25T17:07:17.919Z,7.99
2019-03-25T17:09:50.659Z,8.05
2019-03-25T17:12:23.096Z,8.09
2019-03-25T17:14:55.473Z,8.08
2019-03-25T17:17:27.884Z,8.08
2019-03-25T17:20:00.413Z,8.07
2019-03-25T17:22:32.817Z,8.09
2019-03-25T17:25:05.341Z,8.07
2019-03-25T17:27:38.088Z,8.04
2019-03-25T17:30:15.287Z,8.04
2019-03-25T17:32:47.722Z,7.99
2019-03-25T17:35:20.255Z,8.03
2019-03-25T17:37:52.676Z,7.99
2019-03-25T17:40:25.167Z,7.96
2019-03-25T17:42:57.666Z,7.96
2019-03-25T17:45:30.101Z,7.98
2019-03-25T17:48:02.656Z,7.96
2019-03-25T17:50:35.217Z,7.95
2019-03-25T17:53:07.588Z,7.96
2019-03-25T17:55:40.017Z,7.91
2019-03-25T17:58:12.431Z,7.91
2019-03-25T18:01:19.149Z,7.91
2019-03-25T18:03:51.563Z,7.88
2019-03-25T18:06:23.958Z,7.82
2019-03-25T18:08:56.352Z,7.81
2019-03-25T18:11:28.843Z,7.78
2019-03-25T18:14:01.385Z,7.74
2019-03-25T18:16:33.854Z,7.74
2019-03-25T18:19:06.642Z,7.62
2019-03-25T18:21:39.104Z,7.56
2019-03-25T18:24:11.505Z,7.47
2019-03-25T18:26:43.998Z,7.46
2019-03-25T18:29:17.163Z,7.45
2019-03-25T18:31:49.670Z,7.33
2019-03-25T18:34:22.101Z,7.32
2019-03-25T18:36:54.537Z,7.29
2019-03-25T18:39:26.914Z,7.23
2019-03-25T18:41:59.311Z,7.19
2019-03-25T18:44:31.723Z,7.13
2019-03-25T18:47:04.112Z,7.13
2019-03-25T18:49:36.521Z,7.08
2019-03-25T18:52:08.949Z,7.03
2019-03-25T18:54:41.350Z,6.93
2019-03-25T18:57:13.972Z,6.81
2019-03-25T18:59:46.375Z,6.66
2019-03-25T19:02:18.788Z,6.64
2019-03-25T19:04:52.227Z,6.59
2019-03-25T19:07:25.780Z,6.52
2019-03-25T19:09:58.289Z,6.48
2019-03-25T19:12:30.712Z,6.51
2019-03-25T19:15:03.193Z,6.49
2019-03-25T19:17:35.756Z,6.45
2019-03-25T19:20:08.188Z,6.42
2019-03-25T19:22:40.612Z,6.37
2019-03-25T19:25:13.028Z,6.31
2019-03-25T19:27:45.455Z,6.22
2019-03-25T19:30:18.837Z,6.21
2019-03-25T19:32:51.283Z,6.18
2019-03-25T19:35:23.687Z,6.13
2019-03-25T19:37:56.140Z,6.20
2019-03-25T19:40:28.565Z,6.25
2019-03-25T19:43:01.066Z,6.27
2019-03-25T19:45:33.604Z,6.38
2019-03-25T19:48:06.328Z,6.35
2019-03-25T19:50:38.839Z,6.42
2019-03-25T19:53:19.049Z,6.42
2019-03-25T19:55:45.362Z,6.42
2019-03-25T19:58:17.836Z,6.46
2019-03-25T20:00:50.272Z,6.56
2019-03-25T20:03:22.695Z,6.47
2019-03-25T20:05:55.091Z,6.55
2019-03-25T20:08:27.562Z,6.60
2019-03-25T20:10:59.957Z,6.62
2019-03-25T20:13:33.338Z,6.66
2019-03-25T20:16:05.715Z,6.58
2019-03-25T20:18:38.261Z,6.56
2019-03-25T20:21:10.704Z,6.54
2019-03-25T20:23:43.185Z,6.54
2019-03-25T20:26:15.568Z,6.59
2019-03-25T20:28:47.964Z,6.61
2019-03-25T20:31:20.384Z,6.60
2019-03-25T20:33:52.857Z,6.64
2019-03-25T20:36:25.452Z,6.66
2019-03-25T20:38:57.853Z,6.71
2019-03-25T20:41:30.419Z,6.77
2019-03-25T20:44:03.011Z,6.86
2019-03-25T20:46:35.442Z,6.91
2019-03-25T20:49:07.923Z,6.90
2019-03-25T20:51:40.430Z,6.94
2019-03-25T20:54:12.798Z,6.95
2019-03-25T20:56:46.289Z,7.00
2019-03-25T20:59:18.776Z,7.02
2019-03-25T21:01:51.203Z,7.07
2019-03-25T21:04:23.567Z,7.11
2019-03-25T21:06:55.987Z,7.15
2019-03-25T21:09:28.459Z,7.22
2019-03-25T21:12:00.879Z,7.26
2019-03-25T21:14:33.295Z,7.28
2019-03-25T21:17:05.751Z,7.28
2019-03-25T21:19:38.116Z,7.27
2019-03-25T21:22:10.648Z,7.31
2019-03-25T21:24:43.045Z,7.30
2019-03-25T21:27:16.562Z,7.25
2019-03-25T21:29:48.966Z,7.28
2019-03-25T21:32:21.493Z,7.27
2019-03-25T21:34:53.916Z,7.25
2019-03-25T21:37:26.342Z,7.24
2019-03-25T21:39:58.879Z,7.24
2019-03-25T21:42:31.251Z,7.25
2019-03-25T21:45:03.746Z,7.28
2019-03-25T21:47:36.322Z,7.28
2019-03-25T21:50:09.117Z,7.33
2019-03-25T21:52:41.591Z,7.30
2019-03-25T21:55:13.981Z,7.29
2019-03-25T21:57:46.511Z,7.27
2019-03-25T22:00:19.533Z,7.33
2019-03-25T22:02:51.947Z,7.35
2019-03-25T22:05:24.394Z,7.28
2019-03-25T22:07:56.785Z,7.27
2019-03-25T22:10:29.186Z,7.33
2019-03-25T22:13:01.556Z,7.35
2019-03-25T22:15:33.951Z,7.30
2019-03-25T22:18:06.340Z,7.30
2019-03-25T22:20:38.738Z,7.31
2019-03-25T22:23:11.135Z,7.32
2019-03-25T22:25:44.997Z,7.35
2019-03-25T22:28:17.381Z,7.35
2019-03-25T22:30:49.801Z,7.35
2019-03-25T22:33:26.024Z,7.30
2019-03-25T22:35:56.284Z,7.29
2019-03-25T22:38:28.657Z,7.29
2019-03-25T22:41:01.056Z,7.21
2019-03-25T22:43:33.452Z,7.24
2019-03-25T22:46:05.863Z,7.26
2019-03-25T22:48:38.243Z,7.30
2019-03-25T22:51:10.665Z,7.29
2019-03-25T22:53:43.031Z,7.30
2019-03-25T22:56:15.418Z,7.16
2019-03-25T22:58:47.853Z,7.13
2019-03-25T23:01:20.243Z,7.17
2019-03-25T23:03:52.651Z,7.20
2019-03-25T23:06:26.098Z,7.22
2019-03-25T23:08:59.464Z,7.21
2019-03-25T23:11:31.897Z,7.25
2019-03-25T23:14:04.451Z,7.28
2019-03-25T23:16:36.846Z,7.27
2019-03-25T23:19:09.226Z,7.28
2019-03-25T23:21:41.617Z,7.24
2019-03-25T23:24:14.030Z,7.21
2019-03-25T23:26:46.489Z,7.18
2019-03-25T23:29:18.985Z,7.19
2019-03-25T23:31:51.382Z,7.17
2019-03-25T23:34:23.818Z,7.17
2019-03-25T23:36:56.320Z,7.16
2019-03-25T23:39:28.680Z,7.13
2019-03-25T23:42:01.362Z,7.12
2019-03-25T23:44:33.726Z,7.04
2019-03-25T23:47:06.196Z,7.04
2019-03-25T23:49:38.567Z,6.96
2019-03-25T23:52:11.056Z,6.99
2019-03-25T23:54:43.415Z,6.99
2019-03-25T23:57:15.809Z,6.99
2019-03-25T23:59:48.161Z,6.98
